sensor_id;sensor_type;location;lat;lon;timestamp;temperature;humidity
20242;DHT22;10279;46.388;8.116;2023-02-15T00:00:20;8.30;83.00
20242;DHT22;10279;46.388;8.116;2023-02-15T00:02:47;8.20;82.80
20242;DHT22;10279;46.388;8.116;2023-02-15T00:05:14;8.30;82.80
20242;DHT22;10279;46.388;8.116;2023-02-15T00:07:41;8.20;82.20
20242;DHT22;10279;46.388;8.116;2023-02-15T00:10:08;8.20;81.60
20242;DHT22;10279;46.388;8.116;2023-02-15T00:12:35;8.10;81.40
20242;DHT22;10279;46.388;8.116;2023-02-15T00:15:03;8.10;81.80
20242;DHT22;10279;46.388;8.116;2023-02-15T00:17:30;8.10;82.40
20242;DHT22;10279;46.388;8.116;2023-02-15T00:19:57;8.10;83.30
20242;DHT22;10279;46.388;8.116;2023-02-15T00:22:25;8.20;83.40
20242;DHT22;10279;46.388;8.116;2023-02-15T00:24:54;8.20;83.40
20242;DHT22;10279;46.388;8.116;2023-02-15T00:27:21;8.20;83.40
20242;DHT22;10279;46.388;8.116;2023-02-15T00:29:48;8.20;82.90
20242;DHT22;10279;46.388;8.116;2023-02-15T00:32:15;8.20;82.70
20242;DHT22;10279;46.388;8.116;2023-02-15T00:34:42;8.20;82.10
20242;DHT22;10279;46.388;8.116;2023-02-15T00:37:10;8.20;82.40
20242;DHT22;10279;46.388;8.116;2023-02-15T00:39:37;8.20;83.20
20242;DHT22;10279;46.388;8.116;2023-02-15T00:42:04;8.20;82.40
20242;DHT22;10279;46.388;8.116;2023-02-15T00:44:31;8.10;81.80
20242;DHT22;10279;46.388;8.116;2023-02-15T00:46:59;8.10;81.30
20242;DHT22;10279;46.388;8.116;2023-02-15T00:49:26;8.00;82.50
20242;DHT22;10279;46.388;8.116;2023-02-15T00:51:53;8.00;82.50
20242;DHT22;10279;46.388;8.116;2023-02-15T00:54:20;8.00;82.90
20242;DHT22;10279;46.388;8.116;2023-02-15T00:56:47;8.00;81.90
20242;DHT22;10279;46.388;8.116;2023-02-15T00:59:14;8.00;82.00
20242;DHT22;10279;46.388;8.116;2023-02-15T01:01:41;8.00;81.60
20242;DHT22;10279;46.388;8.116;2023-02-15T01:04:08;8.00;81.60
20242;DHT22;10279;46.388;8.116;2023-02-15T01:06:35;8.00;82.00
20242;DHT22;10279;46.388;8.116;2023-02-15T01:09:03;8.00;82.00
20242;DHT22;10279;46.388;8.116;2023-02-15T01:11:30;8.00;81.70
20242;DHT22;10279;46.388;8.116;2023-02-15T01:13:58;8.00;81.60
20242;DHT22;10279;46.388;8.116;2023-02-15T01:16:27;7.90;82.50
20242;DHT22;10279;46.388;8.116;2023-02-15T01:18:55;7.90;82.50
20242;DHT22;10279;46.388;8.116;2023-02-15T01:21:24;7.90;83.40
20242;DHT22;10279;46.388;8.116;2023-02-15T01:23:51;7.90;82.00
20242;DHT22;10279;46.388;8.116;2023-02-15T01:26:18;8.00;81.60
20242;DHT22;10279;46.388;8.116;2023-02-15T01:28:45;7.90;81.20
20242;DHT22;10279;46.388;8.116;2023-02-15T01:31:17;7.90;81.60
20242;DHT22;10279;46.388;8.116;2023-02-15T01:33:45;7.90;82.10
20242;DHT22;10279;46.388;8.116;2023-02-15T01:36:12;7.80;82.30
20242;DHT22;10279;46.388;8.116;2023-02-15T01:38:40;7.90;81.80
20242;DHT22;10279;46.388;8.116;2023-02-15T01:41:08;7.90;82.20
20242;DHT22;10279;46.388;8.116;2023-02-15T01:43:50;7.90;82.80
20242;DHT22;10279;46.388;8.116;2023-02-15T01:46:20;7.90;82.30
20242;DHT22;10279;46.388;8.116;2023-02-15T01:48:52;7.90;82.20
20242;DHT22;10279;46.388;8.116;2023-02-15T01:51:23;7.90;81.60
20242;DHT22;10279;46.388;8.116;2023-02-15T01:53:56;7.90;81.10
20242;DHT22;10279;46.388;8.116;2023-02-15T01:56:31;7.90;81.80
20242;DHT22;10279;46.388;8.116;2023-02-15T01:59:06;7.80;81.00
20242;DHT22;10279;46.388;8.116;2023-02-15T02:01:35;7.80;80.50
20242;DHT22;10279;46.388;8.116;2023-02-15T02:04:12;7.70;80.70
20242;DHT22;10279;46.388;8.116;2023-02-15T02:06:41;7.70;81.00
20242;DHT22;10279;46.388;8.116;2023-02-15T02:09:09;7.70;81.60
20242;DHT22;10279;46.388;8.116;2023-02-15T02:11:38;7.70;81.80
20242;DHT22;10279;46.388;8.116;2023-02-15T02:14:06;7.60;82.10
20242;DHT22;10279;46.388;8.116;2023-02-15T02:19:41;7.70;80.80
20242;DHT22;10279;46.388;8.116;2023-02-15T02:28:07;7.70;81.50
20242;DHT22;10279;46.388;8.116;2023-02-15T02:31:00;7.70;81.80
20242;DHT22;10279;46.388;8.116;2023-02-15T02:39:54;7.90;80.90
20242;DHT22;10279;46.388;8.116;2023-02-15T02:42:44;7.80;79.60
20242;DHT22;10279;46.388;8.116;2023-02-15T02:45:31;7.80;80.60
20242;DHT22;10279;46.388;8.116;2023-02-15T02:48:04;7.70;80.10
20242;DHT22;10279;46.388;8.116;2023-02-15T02:50:32;7.60;80.90
20242;DHT22;10279;46.388;8.116;2023-02-15T02:52:59;7.60;80.70
20242;DHT22;10279;46.388;8.116;2023-02-15T03:04:00;7.70;80.30
20242;DHT22;10279;46.388;8.116;2023-02-15T03:09:09;7.70;81.10
20242;DHT22;10279;46.388;8.116;2023-02-15T03:11:43;7.60;80.80
20242;DHT22;10279;46.388;8.116;2023-02-15T03:14:11;7.60;81.30
20242;DHT22;10279;46.388;8.116;2023-02-15T03:16:42;7.60;81.40
20242;DHT22;10279;46.388;8.116;2023-02-15T03:21:51;7.60;81.80
20242;DHT22;10279;46.388;8.116;2023-02-15T03:27:14;7.60;80.30
20242;DHT22;10279;46.388;8.116;2023-02-15T03:29:58;7.70;80.50
20242;DHT22;10279;46.388;8.116;2023-02-15T03:32:28;7.60;81.20
20242;DHT22;10279;46.388;8.116;2023-02-15T03:34:56;7.50;81.00
20242;DHT22;10279;46.388;8.116;2023-02-15T03:37:34;7.50;80.70
20242;DHT22;10279;46.388;8.116;2023-02-15T03:40:12;7.40;80.90
20242;DHT22;10279;46.388;8.116;2023-02-15T03:43:43;7.50;81.40
20242;DHT22;10279;46.388;8.116;2023-02-15T03:48:47;7.40;80.50
20242;DHT22;10279;46.388;8.116;2023-02-15T03:51:26;7.40;80.80
20242;DHT22;10279;46.388;8.116;2023-02-15T03:54:05;7.40;81.70
20242;DHT22;10279;46.388;8.116;2023-02-15T03:56:38;7.40;81.70
20242;DHT22;10279;46.388;8.116;2023-02-15T03:59:05;7.40;80.30
20242;DHT22;10279;46.388;8.116;2023-02-15T04:05:02;7.40;80.70
20242;DHT22;10279;46.388;8.116;2023-02-15T04:07:29;7.50;80.90
20242;DHT22;10279;46.388;8.116;2023-02-15T04:09:56;7.50;80.30
20242;DHT22;10279;46.388;8.116;2023-02-15T04:12:42;7.40;80.40
20242;DHT22;10279;46.388;8.116;2023-02-15T04:15:12;7.40;80.20
20242;DHT22;10279;46.388;8.116;2023-02-15T04:17:58;7.40;80.50
20242;DHT22;10279;46.388;8.116;2023-02-15T04:20:24;7.40;80.70
20242;DHT22;10279;46.388;8.116;2023-02-15T04:23:10;7.30;81.50
20242;DHT22;10279;46.388;8.116;2023-02-15T04:25:55;7.30;81.90
20242;DHT22;10279;46.388;8.116;2023-02-15T04:28:22;7.30;82.20
20242;DHT22;10279;46.388;8.116;2023-02-15T04:30:49;7.40;81.60
20242;DHT22;10279;46.388;8.116;2023-02-15T04:33:16;7.40;81.80
20242;DHT22;10279;46.388;8.116;2023-02-15T04:35:43;7.40;82.40
20242;DHT22;10279;46.388;8.116;2023-02-15T04:38:11;7.40;81.60
20242;DHT22;10279;46.388;8.116;2023-02-15T04:40:38;7.50;81.40
20242;DHT22;10279;46.388;8.116;2023-02-15T04:43:05;7.50;81.50
20242;DHT22;10279;46.388;8.116;2023-02-15T04:45:32;7.60;80.50
20242;DHT22;10279;46.388;8.116;2023-02-15T04:47:59;7.50;80.80
20242;DHT22;10279;46.388;8.116;2023-02-15T04:50:26;7.40;80.80
20242;DHT22;10279;46.388;8.116;2023-02-15T04:52:53;7.30;81.50
20242;DHT22;10279;46.388;8.116;2023-02-15T04:55:20;7.40;81.70
20242;DHT22;10279;46.388;8.116;2023-02-15T04:57:48;7.40;80.90
20242;DHT22;10279;46.388;8.116;2023-02-15T05:00:15;7.30;80.50
20242;DHT22;10279;46.388;8.116;2023-02-15T05:02:42;7.20;80.90
20242;DHT22;10279;46.388;8.116;2023-02-15T05:05:09;7.30;81.30
20242;DHT22;10279;46.388;8.116;2023-02-15T05:07:39;7.20;81.10
20242;DHT22;10279;46.388;8.116;2023-02-15T05:10:07;7.20;80.40
20242;DHT22;10279;46.388;8.116;2023-02-15T05:12:34;7.20;80.40
20242;DHT22;10279;46.388;8.116;2023-02-15T05:15:01;7.10;81.00
20242;DHT22;10279;46.388;8.116;2023-02-15T05:17:28;7.00;82.10
20242;DHT22;10279;46.388;8.116;2023-02-15T05:19:55;7.10;82.10
20242;DHT22;10279;46.388;8.116;2023-02-15T05:22:22;7.10;81.60
20242;DHT22;10279;46.388;8.116;2023-02-15T05:24:49;7.10;81.20
20242;DHT22;10279;46.388;8.116;2023-02-15T05:27:35;7.10;80.70
20242;DHT22;10279;46.388;8.116;2023-02-15T05:30:20;7.10;81.70
20242;DHT22;10279;46.388;8.116;2023-02-15T05:32:48;7.20;82.20
20242;DHT22;10279;46.388;8.116;2023-02-15T05:35:15;7.20;81.80
20242;DHT22;10279;46.388;8.116;2023-02-15T05:37:42;7.20;81.60
20242;DHT22;10279;46.388;8.116;2023-02-15T05:40:10;7.20;82.40
20242;DHT22;10279;46.388;8.116;2023-02-15T05:42:37;7.00;81.90
20242;DHT22;10279;46.388;8.116;2023-02-15T05:45:05;6.90;82.70
20242;DHT22;10279;46.388;8.116;2023-02-15T05:47:32;6.90;82.30
20242;DHT22;10279;46.388;8.116;2023-02-15T05:49:59;6.90;82.50
20242;DHT22;10279;46.388;8.116;2023-02-15T05:52:26;7.00;83.00
20242;DHT22;10279;46.388;8.116;2023-02-15T05:54:53;7.00;82.50
20242;DHT22;10279;46.388;8.116;2023-02-15T05:57:20;7.10;82.70
20242;DHT22;10279;46.388;8.116;2023-02-15T05:59:48;7.00;82.00
20242;DHT22;10279;46.388;8.116;2023-02-15T06:02:15;7.00;81.90
20242;DHT22;10279;46.388;8.116;2023-02-15T06:04:42;6.90;82.50
20242;DHT22;10279;46.388;8.116;2023-02-15T06:07:09;7.00;82.10
20242;DHT22;10279;46.388;8.116;2023-02-15T06:09:37;7.00;82.80
20242;DHT22;10279;46.388;8.116;2023-02-15T06:12:05;7.00;82.70
20242;DHT22;10279;46.388;8.116;2023-02-15T06:14:33;6.90;81.90
20242;DHT22;10279;46.388;8.116;2023-02-15T06:16:59;6.90;81.60
20242;DHT22;10279;46.388;8.116;2023-02-15T06:19:29;6.80;81.20
20242;DHT22;10279;46.388;8.116;2023-02-15T06:21:56;6.80;81.00
20242;DHT22;10279;46.388;8.116;2023-02-15T06:24:23;6.80;82.10
20242;DHT22;10279;46.388;8.116;2023-02-15T06:26:50;6.80;82.10
20242;DHT22;10279;46.388;8.116;2023-02-15T06:29:17;6.90;82.10
20242;DHT22;10279;46.388;8.116;2023-02-15T06:31:44;6.90;82.10
20242;DHT22;10279;46.388;8.116;2023-02-15T06:34:11;6.90;82.30
20242;DHT22;10279;46.388;8.116;2023-02-15T06:36:38;6.80;82.90
20242;DHT22;10279;46.388;8.116;2023-02-15T06:39:08;6.80;83.70
20242;DHT22;10279;46.388;8.116;2023-02-15T06:41:35;6.90;82.90
20242;DHT22;10279;46.388;8.116;2023-02-15T06:44:02;6.90;82.00
20242;DHT22;10279;46.388;8.116;2023-02-15T06:46:29;6.80;82.30
20242;DHT22;10279;46.388;8.116;2023-02-15T06:48:56;6.90;82.30
20242;DHT22;10279;46.388;8.116;2023-02-15T06:51:23;6.90;82.90
20242;DHT22;10279;46.388;8.116;2023-02-15T06:53:50;6.80;82.90
20242;DHT22;10279;46.388;8.116;2023-02-15T06:56:17;6.80;82.50
20242;DHT22;10279;46.388;8.116;2023-02-15T06:58:44;6.80;82.60
20242;DHT22;10279;46.388;8.116;2023-02-15T07:01:16;6.80;82.80
20242;DHT22;10279;46.388;8.116;2023-02-15T07:03:43;6.80;82.10
20242;DHT22;10279;46.388;8.116;2023-02-15T07:06:10;6.90;82.40
20242;DHT22;10279;46.388;8.116;2023-02-15T07:08:39;6.80;83.40
20242;DHT22;10279;46.388;8.116;2023-02-15T07:11:09;6.80;82.90
20242;DHT22;10279;46.388;8.116;2023-02-15T07:13:54;6.80;83.00
20242;DHT22;10279;46.388;8.116;2023-02-15T07:16:21;6.80;83.20
20242;DHT22;10279;46.388;8.116;2023-02-15T07:18:51;6.80;82.50
20242;DHT22;10279;46.388;8.116;2023-02-15T07:21:18;6.80;84.10
20242;DHT22;10279;46.388;8.116;2023-02-15T07:23:45;6.90;83.80
20242;DHT22;10279;46.388;8.116;2023-02-15T07:26:12;6.90;82.90
20242;DHT22;10279;46.388;8.116;2023-02-15T07:28:39;7.00;81.90
20242;DHT22;10279;46.388;8.116;2023-02-15T07:31:06;6.90;82.00
20242;DHT22;10279;46.388;8.116;2023-02-15T07:33:35;6.90;81.60
20242;DHT22;10279;46.388;8.116;2023-02-15T07:36:04;6.90;82.10
20242;DHT22;10279;46.388;8.116;2023-02-15T07:38:34;6.90;82.30
20242;DHT22;10279;46.388;8.116;2023-02-15T07:41:03;6.90;82.60
20242;DHT22;10279;46.388;8.116;2023-02-15T07:43:33;7.00;82.30
20242;DHT22;10279;46.388;8.116;2023-02-15T07:46:01;7.00;81.50
20242;DHT22;10279;46.388;8.116;2023-02-15T07:48:29;7.00;81.20
20242;DHT22;10279;46.388;8.116;2023-02-15T07:51:00;6.90;81.40
20242;DHT22;10279;46.388;8.116;2023-02-15T07:53:27;6.90;82.10
20242;DHT22;10279;46.388;8.116;2023-02-15T07:55:58;7.00;82.90
20242;DHT22;10279;46.388;8.116;2023-02-15T07:58:26;7.10;82.70
20242;DHT22;10279;46.388;8.116;2023-02-15T08:01:14;7.10;81.90
20242;DHT22;10279;46.388;8.116;2023-02-15T08:03:41;7.00;81.40
20242;DHT22;10279;46.388;8.116;2023-02-15T08:06:08;7.10;80.90
20242;DHT22;10279;46.388;8.116;2023-02-15T08:08:38;7.10;80.90
20242;DHT22;10279;46.388;8.116;2023-02-15T08:11:20;7.10;81.80
20242;DHT22;10279;46.388;8.116;2023-02-15T08:16:38;7.20;81.60
20242;DHT22;10279;46.388;8.116;2023-02-15T08:19:07;7.30;80.90
20242;DHT22;10279;46.388;8.116;2023-02-15T08:21:42;7.30;80.90
20242;DHT22;10279;46.388;8.116;2023-02-15T08:24:11;7.30;80.70
20242;DHT22;10279;46.388;8.116;2023-02-15T08:26:39;7.40;81.00
20242;DHT22;10279;46.388;8.116;2023-02-15T08:29:09;7.50;81.30
20242;DHT22;10279;46.388;8.116;2023-02-15T08:31:37;7.60;80.90
20242;DHT22;10279;46.388;8.116;2023-02-15T08:34:05;7.60;80.10
20242;DHT22;10279;46.388;8.116;2023-02-15T08:36:32;7.60;79.80
20242;DHT22;10279;46.388;8.116;2023-02-15T08:39:02;7.70;80.00
20242;DHT22;10279;46.388;8.116;2023-02-15T08:41:32;7.80;80.00
20242;DHT22;10279;46.388;8.116;2023-02-15T08:44:02;7.90;80.10
20242;DHT22;10279;46.388;8.116;2023-02-15T08:46:33;8.00;80.30
20242;DHT22;10279;46.388;8.116;2023-02-15T08:49:00;8.20;79.20
20242;DHT22;10279;46.388;8.116;2023-02-15T08:51:31;8.20;79.40
20242;DHT22;10279;46.388;8.116;2023-02-15T08:54:01;8.20;79.30
20242;DHT22;10279;46.388;8.116;2023-02-15T08:56:32;8.30;79.40
20242;DHT22;10279;46.388;8.116;2023-02-15T08:59:00;8.30;79.10
20242;DHT22;10279;46.388;8.116;2023-02-15T09:01:29;8.40;79.30
20242;DHT22;10279;46.388;8.116;2023-02-15T09:03:59;8.50;79.50
20242;DHT22;10279;46.388;8.116;2023-02-15T09:06:28;8.70;79.00
20242;DHT22;10279;46.388;8.116;2023-02-15T09:08:56;8.70;79.40
20242;DHT22;10279;46.388;8.116;2023-02-15T09:11:28;8.80;79.10
20242;DHT22;10279;46.388;8.116;2023-02-15T09:16:27;8.90;77.40
20242;DHT22;10279;46.388;8.116;2023-02-15T09:18:54;9.00;77.30
20242;DHT22;10279;46.388;8.116;2023-02-15T09:21:23;9.00;77.60
20242;DHT22;10279;46.388;8.116;2023-02-15T09:23:54;9.00;77.60
20242;DHT22;10279;46.388;8.116;2023-02-15T09:26:23;9.10;78.10
20242;DHT22;10279;46.388;8.116;2023-02-15T09:28:56;9.10;78.90
20242;DHT22;10279;46.388;8.116;2023-02-15T09:31:26;9.20;77.90
20242;DHT22;10279;46.388;8.116;2023-02-15T09:33:54;9.20;78.20
20242;DHT22;10279;46.388;8.116;2023-02-15T09:36:26;9.30;78.10
20242;DHT22;10279;46.388;8.116;2023-02-15T09:39:00;9.40;78.00
20242;DHT22;10279;46.388;8.116;2023-02-15T09:50:11;9.80;77.30
20242;DHT22;10279;46.388;8.116;2023-02-15T10:04:39;10.50;75.90
20242;DHT22;10279;46.388;8.116;2023-02-15T10:10:24;10.80;75.10
20242;DHT22;10279;46.388;8.116;2023-02-15T10:15:45;11.20;74.60
20242;DHT22;10279;46.388;8.116;2023-02-15T10:21:23;11.40;73.40
20242;DHT22;10279;46.388;8.116;2023-02-15T10:26:47;11.70;71.30
20242;DHT22;10279;46.388;8.116;2023-02-15T10:34:36;12.30;70.10
20242;DHT22;10279;46.388;8.116;2023-02-15T10:42:43;12.90;67.70
20242;DHT22;10279;46.388;8.116;2023-02-15T10:51:43;13.60;65.20
20242;DHT22;10279;46.388;8.116;2023-02-15T11:02:35;14.30;61.90
20242;DHT22;10279;46.388;8.116;2023-02-15T11:05:30;14.40;62.20
20242;DHT22;10279;46.388;8.116;2023-02-15T11:08:06;14.50;62.40
20242;DHT22;10279;46.388;8.116;2023-02-15T11:10:49;14.70;61.90
20242;DHT22;10279;46.388;8.116;2023-02-15T11:13:20;14.80;62.50
20242;DHT22;10279;46.388;8.116;2023-02-15T11:15:58;14.80;61.10
20242;DHT22;10279;46.388;8.116;2023-02-15T11:18:37;14.80;64.20
20242;DHT22;10279;46.388;8.116;2023-02-15T11:23:40;15.10;64.70
20242;DHT22;10279;46.388;8.116;2023-02-15T11:29:05;15.20;60.80
20242;DHT22;10279;46.388;8.116;2023-02-15T11:34:34;15.10;59.90
20242;DHT22;10279;46.388;8.116;2023-02-15T11:37:13;15.20;61.40
20242;DHT22;10279;46.388;8.116;2023-02-15T11:39:42;15.30;60.70
20242;DHT22;10279;46.388;8.116;2023-02-15T11:42:16;15.50;64.60
20242;DHT22;10279;46.388;8.116;2023-02-15T11:45:10;15.70;60.90
20242;DHT22;10279;46.388;8.116;2023-02-15T11:47:43;15.90;62.90
20242;DHT22;10279;46.388;8.116;2023-02-15T11:50:16;16.10;63.00
20242;DHT22;10279;46.388;8.116;2023-02-15T11:52:45;16.40;60.10
20242;DHT22;10279;46.388;8.116;2023-02-15T11:55:20;16.50;60.30
20242;DHT22;10279;46.388;8.116;2023-02-15T11:58:35;16.60;58.90
20242;DHT22;10279;46.388;8.116;2023-02-15T12:00:44;16.70;58.40
20242;DHT22;10279;46.388;8.116;2023-02-15T12:03:14;16.80;59.50
20242;DHT22;10279;46.388;8.116;2023-02-15T12:05:45;16.90;60.00
20242;DHT22;10279;46.388;8.116;2023-02-15T12:08:19;17.00;56.80
20242;DHT22;10279;46.388;8.116;2023-02-15T12:11:11;17.20;59.90
20242;DHT22;10279;46.388;8.116;2023-02-15T12:13:55;17.40;59.30
20242;DHT22;10279;46.388;8.116;2023-02-15T12:16:23;17.60;60.80
20242;DHT22;10279;46.388;8.116;2023-02-15T12:18:53;17.60;57.80
20242;DHT22;10279;46.388;8.116;2023-02-15T12:21:34;17.70;58.60
20242;DHT22;10279;46.388;8.116;2023-02-15T12:24:17;17.70;57.80
20242;DHT22;10279;46.388;8.116;2023-02-15T12:29:29;18.00;58.10
20242;DHT22;10279;46.388;8.116;2023-02-15T12:31:57;18.10;57.70
20242;DHT22;10279;46.388;8.116;2023-02-15T12:34:31;18.30;63.50
20242;DHT22;10279;46.388;8.116;2023-02-15T12:37:09;18.30;61.40
20242;DHT22;10279;46.388;8.116;2023-02-15T12:39:36;18.40;56.60
20242;DHT22;10279;46.388;8.116;2023-02-15T12:42:15;18.60;54.80
20242;DHT22;10279;46.388;8.116;2023-02-15T12:45:00;18.80;54.30
20242;DHT22;10279;46.388;8.116;2023-02-15T12:47:29;19.00;54.00
20242;DHT22;10279;46.388;8.116;2023-02-15T12:50:22;19.20;53.70
20242;DHT22;10279;46.388;8.116;2023-02-15T12:52:50;19.40;52.70
20242;DHT22;10279;46.388;8.116;2023-02-15T12:55:21;19.60;51.80
20242;DHT22;10279;46.388;8.116;2023-02-15T13:03:38;20.00;48.90
20242;DHT22;10279;46.388;8.116;2023-02-15T13:06:06;20.10;51.30
20242;DHT22;10279;46.388;8.116;2023-02-15T13:08:39;20.20;51.40
20242;DHT22;10279;46.388;8.116;2023-02-15T13:11:11;20.30;52.60
20242;DHT22;10279;46.388;8.116;2023-02-15T13:13:51;20.40;50.70
20242;DHT22;10279;46.388;8.116;2023-02-15T13:16:29;20.50;51.50
20242;DHT22;10279;46.388;8.116;2023-02-15T13:18:59;20.60;51.20
20242;DHT22;10279;46.388;8.116;2023-02-15T13:21:33;20.80;50.30
20242;DHT22;10279;46.388;8.116;2023-02-15T13:24:07;20.90;50.70
20242;DHT22;10279;46.388;8.116;2023-02-15T13:26:39;21.00;50.40
20242;DHT22;10279;46.388;8.116;2023-02-15T13:29:22;21.10;48.10
20242;DHT22;10279;46.388;8.116;2023-02-15T13:31:51;21.20;49.50
20242;DHT22;10279;46.388;8.116;2023-02-15T13:34:30;21.30;48.30
20242;DHT22;10279;46.388;8.116;2023-02-15T13:37:08;21.40;48.60
20242;DHT22;10279;46.388;8.116;2023-02-15T13:39:47;21.50;47.30
20242;DHT22;10279;46.388;8.116;2023-02-15T13:42:37;21.70;48.20
20242;DHT22;10279;46.388;8.116;2023-02-15T13:45:30;21.80;47.60
20242;DHT22;10279;46.388;8.116;2023-02-15T13:51:41;22.00;49.40
20242;DHT22;10279;46.388;8.116;2023-02-15T13:54:30;22.00;48.00
20242;DHT22;10279;46.388;8.116;2023-02-15T14:03:31;22.10;47.20
20242;DHT22;10279;46.388;8.116;2023-02-15T14:25:45;19.10;54.10
20242;DHT22;10279;46.388;8.116;2023-02-15T14:28:43;18.80;52.90
20242;DHT22;10279;46.388;8.116;2023-02-15T14:31:13;18.40;53.80
20242;DHT22;10279;46.388;8.116;2023-02-15T14:33:54;18.00;55.00
20242;DHT22;10279;46.388;8.116;2023-02-15T14:36:23;17.70;55.10
20242;DHT22;10279;46.388;8.116;2023-02-15T14:41:49;17.50;54.50
20242;DHT22;10279;46.388;8.116;2023-02-15T14:47:19;17.20;55.70
20242;DHT22;10279;46.388;8.116;2023-02-15T14:49:47;17.20;55.10
20242;DHT22;10279;46.388;8.116;2023-02-15T14:52:14;17.20;54.30
20242;DHT22;10279;46.388;8.116;2023-02-15T15:05:08;17.20;54.10
20242;DHT22;10279;46.388;8.116;2023-02-15T15:07:49;17.20;53.90
20242;DHT22;10279;46.388;8.116;2023-02-15T15:12:54;17.00;54.00
20242;DHT22;10279;46.388;8.116;2023-02-15T15:42:01;17.20;55.20
20242;DHT22;10279;46.388;8.116;2023-02-15T15:50:17;17.60;55.40
20242;DHT22;10279;46.388;8.116;2023-02-15T15:52:54;17.60;56.10
20242;DHT22;10279;46.388;8.116;2023-02-15T15:55:27;17.60;61.80
20242;DHT22;10279;46.388;8.116;2023-02-15T15:58:05;17.40;62.80
20242;DHT22;10279;46.388;8.116;2023-02-15T16:00:43;17.10;63.50
20242;DHT22;10279;46.388;8.116;2023-02-15T16:03:26;16.70;64.20
20242;DHT22;10279;46.388;8.116;2023-02-15T16:05:54;16.40;64.40
20242;DHT22;10279;46.388;8.116;2023-02-15T16:08:42;16.10;64.70
20242;DHT22;10279;46.388;8.116;2023-02-15T16:11:29;15.80;65.40
20242;DHT22;10279;46.388;8.116;2023-02-15T16:13:57;15.50;66.50
20242;DHT22;10279;46.388;8.116;2023-02-15T16:16:27;15.30;66.70
20242;DHT22;10279;46.388;8.116;2023-02-15T16:18:56;15.10;66.90
20242;DHT22;10279;46.388;8.116;2023-02-15T16:21:32;14.80;68.40
20242;DHT22;10279;46.388;8.116;2023-02-15T16:27:21;14.50;69.40
20242;DHT22;10279;46.388;8.116;2023-02-15T16:29:50;14.30;71.60
20242;DHT22;10279;46.388;8.116;2023-02-15T16:32:23;14.10;70.40
20242;DHT22;10279;46.388;8.116;2023-02-15T16:35:00;14.00;71.00
20242;DHT22;10279;46.388;8.116;2023-02-15T16:37:32;13.90;70.50
20242;DHT22;10279;46.388;8.116;2023-02-15T16:39:59;13.80;70.70
20242;DHT22;10279;46.388;8.116;2023-02-15T16:42:27;13.70;72.30
20242;DHT22;10279;46.388;8.116;2023-02-15T16:45:02;13.60;73.00
20242;DHT22;10279;46.388;8.116;2023-02-15T16:47:38;13.40;72.70
20242;DHT22;10279;46.388;8.116;2023-02-15T16:50:17;13.30;73.70
20242;DHT22;10279;46.388;8.116;2023-02-15T16:52:45;13.10;74.20
20242;DHT22;10279;46.388;8.116;2023-02-15T16:55:30;13.00;74.30
20242;DHT22;10279;46.388;8.116;2023-02-15T16:58:04;12.90;73.70
20242;DHT22;10279;46.388;8.116;2023-02-15T17:00:36;12.80;73.20
20242;DHT22;10279;46.388;8.116;2023-02-15T17:03:21;12.80;74.80
20242;DHT22;10279;46.388;8.116;2023-02-15T17:05:56;12.70;74.60
20242;DHT22;10279;46.388;8.116;2023-02-15T17:08:35;12.70;74.10
20242;DHT22;10279;46.388;8.116;2023-02-15T17:11:22;12.60;74.70
20242;DHT22;10279;46.388;8.116;2023-02-15T17:16:53;12.40;76.60
20242;DHT22;10279;46.388;8.116;2023-02-15T17:22:00;12.30;78.30
20242;DHT22;10279;46.388;8.116;2023-02-15T17:24:35;12.20;77.30
20242;DHT22;10279;46.388;8.116;2023-02-15T17:27:10;12.10;77.10
